sensor_id;sensor_type;location;lat;lon;timestamp;P1;durP1;ratioP1;P2;durP2;ratioP2
23596;SDS011;40226;50.874;4.394;2023-05-14T00:00:43;121.75;;;66.68;;
23596;SDS011;40226;50.874;4.394;2023-05-14T00:03:10;122.43;;;67.10;;
23596;SDS011;40226;50.874;4.394;2023-05-14T00:05:35;122.30;;;67.18;;
23596;SDS011;40226;50.874;4.394;2023-05-14T00:08:01;118.90;;;64.80;;
23596;SDS011;40226;50.874;4.394;2023-05-14T00:10:27;118.05;;;65.28;;
23596;SDS011;40226;50.874;4.394;2023-05-14T00:12:52;116.68;;;63.60;;
23596;SDS011;40226;50.874;4.394;2023-05-14T00:15:18;125.28;;;65.57;;
23596;SDS011;40226;50.874;4.394;2023-05-14T00:17:44;119.30;;;65.13;;
23596;SDS011;40226;50.874;4.394;2023-05-14T00:20:10;117.90;;;64.15;;
23596;SDS011;40226;50.874;4.394;2023-05-14T00:22:36;123.63;;;64.57;;
23596;SDS011;40226;50.874;4.394;2023-05-14T00:25:03;120.32;;;67.45;;
23596;SDS011;40226;50.874;4.394;2023-05-14T00:27:30;126.97;;;66.47;;
23596;SDS011;40226;50.874;4.394;2023-05-14T00:29:56;125.60;;;66.75;;
23596;SDS011;40226;50.874;4.394;2023-05-14T00:32:22;123.28;;;66.40;;
23596;SDS011;40226;50.874;4.394;2023-05-14T00:34:48;124.28;;;68.80;;
23596;SDS011;40226;50.874;4.394;2023-05-14T00:37:13;130.85;;;68.70;;
23596;SDS011;40226;50.874;4.394;2023-05-14T00:39:39;120.65;;;64.70;;
23596;SDS011;40226;50.874;4.394;2023-05-14T00:42:05;120.00;;;67.25;;
23596;SDS011;40226;50.874;4.394;2023-05-14T00:44:30;125.20;;;67.47;;
23596;SDS011;40226;50.874;4.394;2023-05-14T00:46:57;133.38;;;69.20;;
23596;SDS011;40226;50.874;4.394;2023-05-14T00:49:23;134.25;;;69.95;;
23596;SDS011;40226;50.874;4.394;2023-05-14T00:51:49;130.27;;;70.55;;
23596;SDS011;40226;50.874;4.394;2023-05-14T00:54:16;134.88;;;68.30;;
23596;SDS011;40226;50.874;4.394;2023-05-14T00:56:44;138.98;;;69.00;;
23596;SDS011;40226;50.874;4.394;2023-05-14T00:59:10;128.85;;;69.72;;
23596;SDS011;40226;50.874;4.394;2023-05-14T01:01:36;127.28;;;66.90;;
23596;SDS011;40226;50.874;4.394;2023-05-14T01:04:02;140.90;;;69.25;;
23596;SDS011;40226;50.874;4.394;2023-05-14T01:17:06;144.63;;;69.43;;
23596;SDS011;40226;50.874;4.394;2023-05-14T01:19:40;152.98;;;72.85;;
23596;SDS011;40226;50.874;4.394;2023-05-14T01:22:07;143.10;;;71.22;;
23596;SDS011;40226;50.874;4.394;2023-05-14T01:24:34;149.07;;;72.28;;
23596;SDS011;40226;50.874;4.394;2023-05-14T01:27:08;147.70;;;73.18;;
23596;SDS011;40226;50.874;4.394;2023-05-14T01:29:42;143.60;;;72.78;;
23596;SDS011;40226;50.874;4.394;2023-05-14T01:32:13;152.15;;;71.20;;
23596;SDS011;40226;50.874;4.394;2023-05-14T01:34:41;143.65;;;70.57;;
23596;SDS011;40226;50.874;4.394;2023-05-14T01:37:09;141.25;;;69.95;;
23596;SDS011;40226;50.874;4.394;2023-05-14T01:39:36;138.15;;;71.05;;
23596;SDS011;40226;50.874;4.394;2023-05-14T01:42:04;141.57;;;71.07;;
23596;SDS011;40226;50.874;4.394;2023-05-14T01:44:32;137.75;;;70.72;;
23596;SDS011;40226;50.874;4.394;2023-05-14T01:46:57;151.57;;;73.22;;
23596;SDS011;40226;50.874;4.394;2023-05-14T01:49:23;153.15;;;74.38;;
23596;SDS011;40226;50.874;4.394;2023-05-14T01:51:49;151.82;;;73.10;;
23596;SDS011;40226;50.874;4.394;2023-05-14T01:54:14;138.13;;;68.85;;
23596;SDS011;40226;50.874;4.394;2023-05-14T01:56:40;150.80;;;73.68;;
23596;SDS011;40226;50.874;4.394;2023-05-14T01:59:05;142.10;;;69.88;;
23596;SDS011;40226;50.874;4.394;2023-05-14T02:01:31;147.43;;;73.75;;
23596;SDS011;40226;50.874;4.394;2023-05-14T02:03:57;151.02;;;73.45;;
23596;SDS011;40226;50.874;4.394;2023-05-14T02:06:24;144.88;;;72.32;;
23596;SDS011;40226;50.874;4.394;2023-05-14T02:08:50;145.63;;;72.78;;
23596;SDS011;40226;50.874;4.394;2023-05-14T02:11:16;145.65;;;70.10;;
23596;SDS011;40226;50.874;4.394;2023-05-14T02:13:41;140.98;;;68.10;;
23596;SDS011;40226;50.874;4.394;2023-05-14T02:16:07;140.93;;;69.75;;
23596;SDS011;40226;50.874;4.394;2023-05-14T02:18:33;151.23;;;69.70;;
23596;SDS011;40226;50.874;4.394;2023-05-14T02:20:59;137.18;;;70.45;;
23596;SDS011;40226;50.874;4.394;2023-05-14T02:23:24;138.35;;;70.40;;
23596;SDS011;40226;50.874;4.394;2023-05-14T02:25:50;144.57;;;70.85;;
23596;SDS011;40226;50.874;4.394;2023-05-14T02:28:16;141.35;;;71.40;;
23596;SDS011;40226;50.874;4.394;2023-05-14T02:30:41;146.48;;;71.22;;
23596;SDS011;40226;50.874;4.394;2023-05-14T02:33:08;145.07;;;72.30;;
23596;SDS011;40226;50.874;4.394;2023-05-14T02:35:34;144.27;;;71.57;;
23596;SDS011;40226;50.874;4.394;2023-05-14T02:38:01;128.52;;;66.13;;
23596;SDS011;40226;50.874;4.394;2023-05-14T02:40:27;144.63;;;69.97;;
23596;SDS011;40226;50.874;4.394;2023-05-14T02:42:53;139.50;;;67.05;;
23596;SDS011;40226;50.874;4.394;2023-05-14T02:45:18;137.35;;;67.90;;
23596;SDS011;40226;50.874;4.394;2023-05-14T02:47:45;140.95;;;67.72;;
23596;SDS011;40226;50.874;4.394;2023-05-14T02:50:11;138.10;;;66.32;;
23596;SDS011;40226;50.874;4.394;2023-05-14T02:52:36;139.32;;;68.30;;
23596;SDS011;40226;50.874;4.394;2023-05-14T02:55:02;144.45;;;69.07;;
23596;SDS011;40226;50.874;4.394;2023-05-14T02:57:28;145.50;;;67.60;;
23596;SDS011;40226;50.874;4.394;2023-05-14T02:59:54;139.77;;;68.40;;
23596;SDS011;40226;50.874;4.394;2023-05-14T03:02:20;143.30;;;69.22;;
23596;SDS011;40226;50.874;4.394;2023-05-14T03:04:45;149.27;;;69.72;;
23596;SDS011;40226;50.874;4.394;2023-05-14T03:07:11;139.52;;;67.45;;
23596;SDS011;40226;50.874;4.394;2023-05-14T03:09:37;142.93;;;68.47;;
23596;SDS011;40226;50.874;4.394;2023-05-14T03:12:03;148.95;;;68.53;;
23596;SDS011;40226;50.874;4.394;2023-05-14T03:14:29;158.45;;;71.35;;
23596;SDS011;40226;50.874;4.394;2023-05-14T03:16:54;150.25;;;71.45;;
23596;SDS011;40226;50.874;4.394;2023-05-14T03:19:20;141.32;;;69.95;;
23596;SDS011;40226;50.874;4.394;2023-05-14T03:21:46;147.98;;;69.75;;
23596;SDS011;40226;50.874;4.394;2023-05-14T03:24:11;143.13;;;71.50;;
23596;SDS011;40226;50.874;4.394;2023-05-14T03:26:41;141.90;;;67.53;;
23596;SDS011;40226;50.874;4.394;2023-05-14T03:29:07;140.95;;;67.13;;
23596;SDS011;40226;50.874;4.394;2023-05-14T03:31:36;146.57;;;69.20;;
23596;SDS011;40226;50.874;4.394;2023-05-14T03:34:02;134.20;;;67.75;;
23596;SDS011;40226;50.874;4.394;2023-05-14T03:39:12;144.10;;;67.22;;
23596;SDS011;40226;50.874;4.394;2023-05-14T03:41:45;140.13;;;67.80;;
23596;SDS011;40226;50.874;4.394;2023-05-14T03:44:11;137.88;;;66.63;;
23596;SDS011;40226;50.874;4.394;2023-05-14T03:46:37;137.30;;;68.15;;
23596;SDS011;40226;50.874;4.394;2023-05-14T03:49:03;145.57;;;69.32;;
23596;SDS011;40226;50.874;4.394;2023-05-14T03:51:28;139.38;;;66.97;;
23596;SDS011;40226;50.874;4.394;2023-05-14T03:53:55;147.82;;;68.95;;
23596;SDS011;40226;50.874;4.394;2023-05-14T03:56:22;135.85;;;65.65;;
23596;SDS011;40226;50.874;4.394;2023-05-14T03:58:48;143.35;;;67.57;;
23596;SDS011;40226;50.874;4.394;2023-05-14T04:01:13;133.52;;;65.85;;
23596;SDS011;40226;50.874;4.394;2023-05-14T04:03:39;137.02;;;66.10;;
23596;SDS011;40226;50.874;4.394;2023-05-14T04:06:05;144.70;;;68.20;;
23596;SDS011;40226;50.874;4.394;2023-05-14T04:08:30;138.70;;;67.68;;
23596;SDS011;40226;50.874;4.394;2023-05-14T04:10:56;149.48;;;69.35;;
23596;SDS011;40226;50.874;4.394;2023-05-14T04:13:22;145.65;;;67.65;;
23596;SDS011;40226;50.874;4.394;2023-05-14T04:15:47;151.68;;;69.25;;
23596;SDS011;40226;50.874;4.394;2023-05-14T04:18:13;149.55;;;69.63;;
23596;SDS011;40226;50.874;4.394;2023-05-14T04:20:39;146.25;;;68.75;;
23596;SDS011;40226;50.874;4.394;2023-05-14T04:23:05;149.18;;;67.55;;
23596;SDS011;40226;50.874;4.394;2023-05-14T04:25:30;139.15;;;66.63;;
23596;SDS011;40226;50.874;4.394;2023-05-14T04:27:56;140.65;;;66.18;;
23596;SDS011;40226;50.874;4.394;2023-05-14T04:30:23;137.80;;;67.00;;
23596;SDS011;40226;50.874;4.394;2023-05-14T04:32:49;141.25;;;66.35;;
23596;SDS011;40226;50.874;4.394;2023-05-14T04:35:15;143.27;;;68.32;;
23596;SDS011;40226;50.874;4.394;2023-05-14T04:37:41;138.45;;;66.93;;
23596;SDS011;40226;50.874;4.394;2023-05-14T04:40:07;148.82;;;68.13;;
23596;SDS011;40226;50.874;4.394;2023-05-14T04:42:35;129.35;;;65.35;;
23596;SDS011;40226;50.874;4.394;2023-05-14T04:45:01;135.32;;;66.03;;
23596;SDS011;40226;50.874;4.394;2023-05-14T04:47:29;135.52;;;66.85;;
23596;SDS011;40226;50.874;4.394;2023-05-14T04:49:55;140.68;;;67.85;;
23596;SDS011;40226;50.874;4.394;2023-05-14T04:52:21;136.93;;;67.80;;
23596;SDS011;40226;50.874;4.394;2023-05-14T04:54:47;136.15;;;67.13;;
23596;SDS011;40226;50.874;4.394;2023-05-14T04:57:13;142.50;;;66.82;;
23596;SDS011;40226;50.874;4.394;2023-05-14T04:59:39;136.07;;;66.20;;
23596;SDS011;40226;50.874;4.394;2023-05-14T05:02:05;136.18;;;64.95;;
23596;SDS011;40226;50.874;4.394;2023-05-14T05:04:30;136.23;;;63.88;;
23596;SDS011;40226;50.874;4.394;2023-05-14T05:06:56;136.20;;;66.72;;
23596;SDS011;40226;50.874;4.394;2023-05-14T05:09:21;139.75;;;65.93;;
23596;SDS011;40226;50.874;4.394;2023-05-14T05:11:47;144.82;;;64.20;;
23596;SDS011;40226;50.874;4.394;2023-05-14T05:14:13;135.80;;;63.15;;
23596;SDS011;40226;50.874;4.394;2023-05-14T05:16:38;132.98;;;63.53;;
23596;SDS011;40226;50.874;4.394;2023-05-14T05:19:04;139.68;;;67.60;;
23596;SDS011;40226;50.874;4.394;2023-05-14T05:21:30;137.68;;;64.25;;
23596;SDS011;40226;50.874;4.394;2023-05-14T05:23:57;130.50;;;62.33;;
23596;SDS011;40226;50.874;4.394;2023-05-14T05:26:24;130.77;;;63.22;;
23596;SDS011;40226;50.874;4.394;2023-05-14T05:28:50;133.32;;;62.92;;
23596;SDS011;40226;50.874;4.394;2023-05-14T05:31:16;128.45;;;60.08;;
23596;SDS011;40226;50.874;4.394;2023-05-14T05:33:42;126.97;;;61.80;;
23596;SDS011;40226;50.874;4.394;2023-05-14T05:36:08;127.22;;;63.22;;
23596;SDS011;40226;50.874;4.394;2023-05-14T05:38:33;121.30;;;60.22;;
23596;SDS011;40226;50.874;4.394;2023-05-14T05:40:59;131.73;;;58.67;;
23596;SDS011;40226;50.874;4.394;2023-05-14T05:43:25;125.72;;;59.58;;
23596;SDS011;40226;50.874;4.394;2023-05-14T05:45:52;120.32;;;59.63;;
23596;SDS011;40226;50.874;4.394;2023-05-14T05:48:18;122.82;;;60.88;;
23596;SDS011;40226;50.874;4.394;2023-05-14T05:50:45;124.90;;;57.25;;
23596;SDS011;40226;50.874;4.394;2023-05-14T05:53:12;115.63;;;58.42;;
23596;SDS011;40226;50.874;4.394;2023-05-14T05:55:37;114.68;;;57.38;;
23596;SDS011;40226;50.874;4.394;2023-05-14T05:58:03;118.57;;;57.35;;
23596;SDS011;40226;50.874;4.394;2023-05-14T06:00:28;123.15;;;59.15;;
23596;SDS011;40226;50.874;4.394;2023-05-14T06:02:55;123.07;;;61.05;;
23596;SDS011;40226;50.874;4.394;2023-05-14T06:05:20;119.80;;;58.38;;
23596;SDS011;40226;50.874;4.394;2023-05-14T06:07:46;118.78;;;59.28;;
23596;SDS011;40226;50.874;4.394;2023-05-14T06:10:12;124.90;;;60.05;;
23596;SDS011;40226;50.874;4.394;2023-05-14T06:12:37;112.72;;;56.47;;
23596;SDS011;40226;50.874;4.394;2023-05-14T06:15:03;116.32;;;57.65;;
23596;SDS011;40226;50.874;4.394;2023-05-14T06:17:29;121.20;;;58.88;;
23596;SDS011;40226;50.874;4.394;2023-05-14T06:19:55;113.85;;;58.33;;
23596;SDS011;40226;50.874;4.394;2023-05-14T06:22:20;118.85;;;59.15;;
23596;SDS011;40226;50.874;4.394;2023-05-14T06:24:46;112.00;;;56.25;;
23596;SDS011;40226;50.874;4.394;2023-05-14T06:27:12;118.75;;;57.90;;
23596;SDS011;40226;50.874;4.394;2023-05-14T06:29:38;115.68;;;55.97;;
23596;SDS011;40226;50.874;4.394;2023-05-14T06:32:04;106.88;;;55.75;;
23596;SDS011;40226;50.874;4.394;2023-05-14T06:34:30;111.03;;;55.28;;
23596;SDS011;40226;50.874;4.394;2023-05-14T06:36:56;111.13;;;55.88;;
23596;SDS011;40226;50.874;4.394;2023-05-14T06:39:22;106.20;;;55.95;;
23596;SDS011;40226;50.874;4.394;2023-05-14T06:41:48;104.40;;;52.55;;
23596;SDS011;40226;50.874;4.394;2023-05-14T06:44:15;111.32;;;54.42;;
23596;SDS011;40226;50.874;4.394;2023-05-14T06:46:42;107.80;;;53.42;;
23596;SDS011;40226;50.874;4.394;2023-05-14T06:49:08;108.30;;;53.65;;
23596;SDS011;40226;50.874;4.394;2023-05-14T06:51:33;108.53;;;53.90;;
23596;SDS011;40226;50.874;4.394;2023-05-14T06:53:59;107.20;;;53.28;;
23596;SDS011;40226;50.874;4.394;2023-05-14T06:56:24;102.45;;;53.00;;
23596;SDS011;40226;50.874;4.394;2023-05-14T06:58:50;101.50;;;52.63;;
23596;SDS011;40226;50.874;4.394;2023-05-14T07:01:16;104.07;;;52.45;;
23596;SDS011;40226;50.874;4.394;2023-05-14T07:03:41;104.88;;;53.50;;
23596;SDS011;40226;50.874;4.394;2023-05-14T07:06:07;112.75;;;57.05;;
23596;SDS011;40226;50.874;4.394;2023-05-14T07:08:33;100.38;;;53.53;;
23596;SDS011;40226;50.874;4.394;2023-05-14T07:10:58;98.63;;;53.50;;
23596;SDS011;40226;50.874;4.394;2023-05-14T07:13:24;103.47;;;52.20;;
23596;SDS011;40226;50.874;4.394;2023-05-14T07:15:51;105.18;;;52.38;;
23596;SDS011;40226;50.874;4.394;2023-05-14T07:18:17;104.43;;;49.97;;
23596;SDS011;40226;50.874;4.394;2023-05-14T07:20:42;111.32;;;53.38;;
23596;SDS011;40226;50.874;4.394;2023-05-14T07:23:08;96.65;;;51.22;;
23596;SDS011;40226;50.874;4.394;2023-05-14T07:25:33;96.93;;;50.75;;
23596;SDS011;40226;50.874;4.394;2023-05-14T07:27:59;106.72;;;53.33;;
23596;SDS011;40226;50.874;4.394;2023-05-14T07:30:26;95.90;;;51.85;;
23596;SDS011;40226;50.874;4.394;2023-05-14T07:32:53;95.90;;;52.00;;
23596;SDS011;40226;50.874;4.394;2023-05-14T07:35:18;99.78;;;52.00;;
23596;SDS011;40226;50.874;4.394;2023-05-14T07:37:44;97.75;;;51.00;;
23596;SDS011;40226;50.874;4.394;2023-05-14T07:40:10;105.70;;;52.03;;
23596;SDS011;40226;50.874;4.394;2023-05-14T07:42:36;102.60;;;53.30;;
23596;SDS011;40226;50.874;4.394;2023-05-14T07:45:01;95.13;;;50.53;;
23596;SDS011;40226;50.874;4.394;2023-05-14T07:47:28;106.38;;;51.88;;
23596;SDS011;40226;50.874;4.394;2023-05-14T07:49:54;89.60;;;51.45;;
23596;SDS011;40226;50.874;4.394;2023-05-14T07:52:21;96.63;;;51.92;;
23596;SDS011;40226;50.874;4.394;2023-05-14T07:54:46;89.57;;;52.40;;
23596;SDS011;40226;50.874;4.394;2023-05-14T07:57:12;90.47;;;51.38;;
23596;SDS011;40226;50.874;4.394;2023-05-14T07:59:38;92.00;;;50.95;;
23596;SDS011;40226;50.874;4.394;2023-05-14T08:02:03;100.55;;;51.15;;
23596;SDS011;40226;50.874;4.394;2023-05-14T08:04:29;90.70;;;49.85;;
23596;SDS011;40226;50.874;4.394;2023-05-14T08:06:55;80.13;;;47.70;;
23596;SDS011;40226;50.874;4.394;2023-05-14T08:09:22;87.70;;;48.22;;
23596;SDS011;40226;50.874;4.394;2023-05-14T08:11:47;80.47;;;47.35;;
23596;SDS011;40226;50.874;4.394;2023-05-14T08:14:13;78.45;;;46.60;;
23596;SDS011;40226;50.874;4.394;2023-05-14T08:16:39;82.25;;;45.70;;
23596;SDS011;40226;50.874;4.394;2023-05-14T08:19:04;84.10;;;47.00;;
23596;SDS011;40226;50.874;4.394;2023-05-14T08:21:30;80.30;;;47.15;;
23596;SDS011;40226;50.874;4.394;2023-05-14T08:23:56;72.90;;;44.72;;
23596;SDS011;40226;50.874;4.394;2023-05-14T08:26:22;78.43;;;44.95;;
23596;SDS011;40226;50.874;4.394;2023-05-14T08:28:48;75.15;;;43.78;;
23596;SDS011;40226;50.874;4.394;2023-05-14T08:31:15;73.93;;;44.67;;
23596;SDS011;40226;50.874;4.394;2023-05-14T08:33:40;73.18;;;43.13;;
23596;SDS011;40226;50.874;4.394;2023-05-14T08:36:06;74.35;;;41.58;;
23596;SDS011;40226;50.874;4.394;2023-05-14T08:38:32;67.50;;;41.55;;
23596;SDS011;40226;50.874;4.394;2023-05-14T08:40:58;69.43;;;40.88;;
23596;SDS011;40226;50.874;4.394;2023-05-14T08:43:34;75.72;;;43.05;;
23596;SDS011;40226;50.874;4.394;2023-05-14T08:46:07;63.85;;;40.90;;
23596;SDS011;40226;50.874;4.394;2023-05-14T08:48:37;67.30;;;41.25;;
23596;SDS011;40226;50.874;4.394;2023-05-14T08:51:06;68.65;;;41.00;;
23596;SDS011;40226;50.874;4.394;2023-05-14T08:53:32;60.85;;;39.88;;
23596;SDS011;40226;50.874;4.394;2023-05-14T08:56:00;71.65;;;42.83;;
23596;SDS011;40226;50.874;4.394;2023-05-14T08:58:26;69.88;;;40.78;;
23596;SDS011;40226;50.874;4.394;2023-05-14T09:00:53;66.45;;;40.97;;
23596;SDS011;40226;50.874;4.394;2023-05-14T09:03:19;66.82;;;42.70;;
23596;SDS011;40226;50.874;4.394;2023-05-14T09:05:45;70.35;;;42.50;;
23596;SDS011;40226;50.874;4.394;2023-05-14T09:08:22;65.55;;;42.95;;
23596;SDS011;40226;50.874;4.394;2023-05-14T09:10:48;69.88;;;43.08;;
23596;SDS011;40226;50.874;4.394;2023-05-14T09:13:13;71.82;;;43.70;;
23596;SDS011;40226;50.874;4.394;2023-05-14T09:15:39;63.70;;;42.90;;
23596;SDS011;40226;50.874;4.394;2023-05-14T09:18:05;63.95;;;41.83;;
23596;SDS011;40226;50.874;4.394;2023-05-14T09:20:31;69.15;;;41.30;;
23596;SDS011;40226;50.874;4.394;2023-05-14T09:23:00;61.10;;;39.95;;
23596;SDS011;40226;50.874;4.394;2023-05-14T09:25:26;59.35;;;38.15;;
23596;SDS011;40226;50.874;4.394;2023-05-14T09:27:55;60.80;;;38.80;;
23596;SDS011;40226;50.874;4.394;2023-05-14T09:30:23;57.22;;;37.35;;
23596;SDS011;40226;50.874;4.394;2023-05-14T09:32:51;55.17;;;37.20;;
23596;SDS011;40226;50.874;4.394;2023-05-14T09:35:23;53.83;;;35.30;;
23596;SDS011;40226;50.874;4.394;2023-05-14T09:37:50;52.75;;;36.13;;
23596;SDS011;40226;50.874;4.394;2023-05-14T09:40:17;55.38;;;36.03;;
23596;SDS011;40226;50.874;4.394;2023-05-14T09:42:44;46.53;;;35.35;;
23596;SDS011;40226;50.874;4.394;2023-05-14T09:45:10;53.97;;;35.70;;
23596;SDS011;40226;50.874;4.394;2023-05-14T09:47:37;53.13;;;34.95;;
23596;SDS011;40226;50.874;4.394;2023-05-14T09:50:03;49.40;;;34.42;;
23596;SDS011;40226;50.874;4.394;2023-05-14T09:52:29;47.00;;;33.45;;
23596;SDS011;40226;50.874;4.394;2023-05-14T09:54:55;48.65;;;34.38;;
23596;SDS011;40226;50.874;4.394;2023-05-14T09:57:21;53.13;;;35.20;;
23596;SDS011;40226;50.874;4.394;2023-05-14T09:59:47;49.65;;;34.30;;
23596;SDS011;40226;50.874;4.394;2023-05-14T10:02:23;49.00;;;35.08;;
23596;SDS011;40226;50.874;4.394;2023-05-14T10:04:54;49.00;;;34.60;;
23596;SDS011;40226;50.874;4.394;2023-05-14T10:07:30;47.72;;;35.22;;
23596;SDS011;40226;50.874;4.394;2023-05-14T10:10:02;47.38;;;33.45;;
23596;SDS011;40226;50.874;4.394;2023-05-14T10:12:33;44.70;;;32.60;;
23596;SDS011;40226;50.874;4.394;2023-05-14T10:15:02;46.47;;;32.80;;
23596;SDS011;40226;50.874;4.394;2023-05-14T10:17:32;43.80;;;32.60;;
23596;SDS011;40226;50.874;4.394;2023-05-14T10:19:58;43.97;;;32.60;;
23596;SDS011;40226;50.874;4.394;2023-05-14T10:22:32;45.17;;;32.85;;
23596;SDS011;40226;50.874;4.394;2023-05-14T10:25:01;43.00;;;32.20;;
23596;SDS011;40226;50.874;4.394;2023-05-14T10:27:28;44.45;;;33.22;;
23596;SDS011;40226;50.874;4.394;2023-05-14T10:29:54;46.58;;;33.83;;
23596;SDS011;40226;50.874;4.394;2023-05-14T10:32:20;47.72;;;32.13;;
23596;SDS011;40226;50.874;4.394;2023-05-14T10:34:49;42.60;;;32.40;;
23596;SDS011;40226;50.874;4.394;2023-05-14T10:37:16;51.28;;;33.97;;
23596;SDS011;40226;50.874;4.394;2023-05-14T10:39:59;43.00;;;32.40;;
23596;SDS011;40226;50.874;4.394;2023-05-14T10:44:58;45.92;;;32.92;;
23596;SDS011;40226;50.874;4.394;2023-05-14T10:47:28;46.25;;;32.13;;
23596;SDS011;40226;50.874;4.394;2023-05-14T10:49:59;48.95;;;33.55;;
23596;SDS011;40226;50.874;4.394;2023-05-14T10:52:26;42.13;;;30.73;;
23596;SDS011;40226;50.874;4.394;2023-05-14T10:57:21;42.17;;;30.05;;
23596;SDS011;40226;50.874;4.394;2023-05-14T10:59:50;45.15;;;29.98;;
23596;SDS011;40226;50.874;4.394;2023-05-14T11:02:23;38.42;;;29.20;;
23596;SDS011;40226;50.874;4.394;2023-05-14T11:04:57;37.17;;;27.55;;
23596;SDS011;40226;50.874;4.394;2023-05-14T11:07:24;38.47;;;25.65;;
23596;SDS011;40226;50.874;4.394;2023-05-14T11:09:53;35.42;;;25.15;;
23596;SDS011;40226;50.874;4.394;2023-05-14T11:12:26;38.30;;;25.33;;
23596;SDS011;40226;50.874;4.394;2023-05-14T11:14:52;36.45;;;25.42;;
23596;SDS011;40226;50.874;4.394;2023-05-14T11:17:21;36.97;;;24.05;;
23596;SDS011;40226;50.874;4.394;2023-05-14T11:19:47;31.73;;;24.05;;
23596;SDS011;40226;50.874;4.394;2023-05-14T11:22:12;32.63;;;24.13;;
23596;SDS011;40226;50.874;4.394;2023-05-14T11:24:38;31.30;;;24.90;;
23596;SDS011;40226;50.874;4.394;2023-05-14T11:27:06;36.13;;;25.45;;
23596;SDS011;40226;50.874;4.394;2023-05-14T11:29:34;32.35;;;23.25;;
23596;SDS011;40226;50.874;4.394;2023-05-14T11:32:05;30.48;;;24.52;;
23596;SDS011;40226;50.874;4.394;2023-05-14T11:34:31;36.15;;;25.90;;
23596;SDS011;40226;50.874;4.394;2023-05-14T11:37:01;34.60;;;26.10;;
23596;SDS011;40226;50.874;4.394;2023-05-14T11:39:34;36.05;;;25.70;;
23596;SDS011;40226;50.874;4.394;2023-05-14T11:42:01;36.40;;;26.95;;
23596;SDS011;40226;50.874;4.394;2023-05-14T11:44:28;33.30;;;24.73;;
23596;SDS011;40226;50.874;4.394;2023-05-14T11:46:55;29.42;;;24.05;;
23596;SDS011;40226;50.874;4.394;2023-05-14T11:49:22;36.75;;;25.08;;
23596;SDS011;40226;50.874;4.394;2023-05-14T11:51:49;31.08;;;25.48;;
23596;SDS011;40226;50.874;4.394;2023-05-14T11:54:21;33.00;;;25.55;;
23596;SDS011;40226;50.874;4.394;2023-05-14T11:56:50;34.03;;;24.92;;
23596;SDS011;40226;50.874;4.394;2023-05-14T11:59:16;33.83;;;25.60;;
23596;SDS011;40226;50.874;4.394;2023-05-14T12:01:43;31.85;;;24.40;;
23596;SDS011;40226;50.874;4.394;2023-05-14T12:04:11;33.70;;;24.27;;
23596;SDS011;40226;50.874;4.394;2023-05-14T12:06:42;29.58;;;24.00;;
23596;SDS011;40226;50.874;4.394;2023-05-14T12:09:11;32.25;;;23.08;;
23596;SDS011;40226;50.874;4.394;2023-05-14T12:11:36;27.35;;;22.52;;
23596;SDS011;40226;50.874;4.394;2023-05-14T12:14:09;32.22;;;23.80;;
23596;SDS011;40226;50.874;4.394;2023-05-14T12:16:38;30.88;;;24.23;;
23596;SDS011;40226;50.874;4.394;2023-05-14T12:19:05;32.72;;;23.90;;
23596;SDS011;40226;50.874;4.394;2023-05-14T12:21:33;31.80;;;24.00;;
23596;SDS011;40226;50.874;4.394;2023-05-14T12:23:58;27.90;;;23.58;;
23596;SDS011;40226;50.874;4.394;2023-05-14T12:26:25;31.33;;;25.27;;
23596;SDS011;40226;50.874;4.394;2023-05-14T12:28:59;34.05;;;23.27;;
23596;SDS011;40226;50.874;4.394;2023-05-14T12:31:27;28.05;;;22.80;;
23596;SDS011;40226;50.874;4.394;2023-05-14T12:34:02;32.28;;;22.73;;
23596;SDS011;40226;50.874;4.394;2023-05-14T12:36:28;29.80;;;24.15;;
23596;SDS011;40226;50.874;4.394;2023-05-14T12:39:00;31.50;;;22.20;;
23596;SDS011;40226;50.874;4.394;2023-05-14T12:41:28;33.53;;;23.25;;
23596;SDS011;40226;50.874;4.394;2023-05-14T12:44:14;32.88;;;26.10;;
23596;SDS011;40226;50.874;4.394;2023-05-14T12:47:02;29.27;;;23.17;;
23596;SDS011;40226;50.874;4.394;2023-05-14T12:49:28;29.95;;;22.02;;
23596;SDS011;40226;50.874;4.394;2023-05-14T12:51:54;27.70;;;23.73;;
23596;SDS011;40226;50.874;4.394;2023-05-14T12:54:20;28.33;;;21.70;;
23596;SDS011;40226;50.874;4.394;2023-05-14T12:56:46;29.05;;;22.83;;
23596;SDS011;40226;50.874;4.394;2023-05-14T12:59:11;30.58;;;23.00;;
23596;SDS011;40226;50.874;4.394;2023-05-14T13:01:37;27.15;;;23.35;;
23596;SDS011;40226;50.874;4.394;2023-05-14T13:04:03;33.38;;;26.30;;
23596;SDS011;40226;50.874;4.394;2023-05-14T13:06:29;31.98;;;26.17;;
23596;SDS011;40226;50.874;4.394;2023-05-14T13:08:55;26.20;;;22.10;;
23596;SDS011;40226;50.874;4.394;2023-05-14T13:11:23;39.47;;;32.00;;
23596;SDS011;40226;50.874;4.394;2023-05-14T13:13:51;28.42;;;23.45;;
23596;SDS011;40226;50.874;4.394;2023-05-14T13:16:16;28.63;;;21.83;;
23596;SDS011;40226;50.874;4.394;2023-05-14T13:18:42;27.33;;;23.10;;
23596;SDS011;40226;50.874;4.394;2023-05-14T13:21:07;30.15;;;26.85;;
23596;SDS011;40226;50.874;4.394;2023-05-14T13:23:33;31.75;;;25.27;;
23596;SDS011;40226;50.874;4.394;2023-05-14T13:25:59;26.75;;;19.70;;
23596;SDS011;40226;50.874;4.394;2023-05-14T13:28:24;25.35;;;21.77;;
23596;SDS011;40226;50.874;4.394;2023-05-14T13:31:09;20.83;;;18.60;;
23596;SDS011;40226;50.874;4.394;2023-05-14T13:33:38;22.42;;;18.25;;
23596;SDS011;40226;50.874;4.394;2023-05-14T13:36:05;24.08;;;20.50;;
23596;SDS011;40226;50.874;4.394;2023-05-14T13:38:32;22.00;;;19.17;;
23596;SDS011;40226;50.874;4.394;2023-05-14T13:40:58;22.80;;;18.70;;
23596;SDS011;40226;50.874;4.394;2023-05-14T13:43:26;22.25;;;18.98;;
23596;SDS011;40226;50.874;4.394;2023-05-14T13:45:53;23.55;;;18.77;;
23596;SDS011;40226;50.874;4.394;2023-05-14T13:48:19;20.70;;;17.20;;
23596;SDS011;40226;50.874;4.394;2023-05-14T13:50:44;20.02;;;16.70;;
23596;SDS011;40226;50.874;4.394;2023-05-14T13:53:10;21.20;;;16.70;;
23596;SDS011;40226;50.874;4.394;2023-05-14T13:55:37;21.42;;;17.50;;
23596;SDS011;40226;50.874;4.394;2023-05-14T13:58:03;21.50;;;17.23;;
23596;SDS011;40226;50.874;4.394;2023-05-14T14:00:29;20.15;;;16.10;;
23596;SDS011;40226;50.874;4.394;2023-05-14T14:02:55;18.30;;;15.52;;
23596;SDS011;40226;50.874;4.394;2023-05-14T14:05:21;20.55;;;16.42;;
23596;SDS011;40226;50.874;4.394;2023-05-14T14:07:48;22.88;;;16.20;;
23596;SDS011;40226;50.874;4.394;2023-05-14T14:10:14;21.17;;;16.58;;
23596;SDS011;40226;50.874;4.394;2023-05-14T14:12:39;18.75;;;15.25;;
23596;SDS011;40226;50.874;4.394;2023-05-14T14:15:05;21.85;;;16.08;;
23596;SDS011;40226;50.874;4.394;2023-05-14T14:17:31;29.38;;;16.83;;
23596;SDS011;40226;50.874;4.394;2023-05-14T14:19:58;25.77;;;15.32;;
23596;SDS011;40226;50.874;4.394;2023-05-14T14:22:24;24.73;;;16.13;;
23596;SDS011;40226;50.874;4.394;2023-05-14T14:24:50;23.40;;;15.30;;
23596;SDS011;40226;50.874;4.394;2023-05-14T14:27:15;21.02;;;14.90;;
23596;SDS011;40226;50.874;4.394;2023-05-14T14:29:41;20.42;;;14.48;;
23596;SDS011;40226;50.874;4.394;2023-05-14T14:32:06;21.90;;;14.98;;